Time;durP1;ratioP1;P1;durP2;ratioP2;P2;SDS_P1;SDS_P2;PMS_P1;PMS_P2;Temp;Humidity;BMP_temperature;BMP_pressure;BME280_temperature;BME280_humidity;BME280_pressure;Samples;Min_cycle;Max_cycle;Signal;HPM_P1;HPM_P2
2023/04/05 00:02:28;;;;;;;;;;;;;;;10.90;nan;99653.47;4940638;29;20285;-89
2023/04/05 00:05:12;;;;;;;;;;;;;;;10.89;nan;99651.81;4933352;29;19974;-90
2023/04/05 00:07:56;;;;;;;;;;;;;;;10.86;nan;99652.19;4938617;29;19962;-88
2023/04/05 00:10:40;;;;;;;;;;;;;;;10.91;nan;99649.84;4937040;29;20026;-88
2023/04/05 00:13:24;;;;;;;;;;;;;;;10.73;nan;99633.63;4941001;29;19950;-89
2023/04/05 00:16:08;;;;;;;;;;;;;;;10.79;nan;99635.50;4956493;29;19933;-86
2023/04/05 00:18:52;;;;;;;;;;;;;;;10.87;nan;99632.81;4955386;29;19920;-88
2023/04/05 00:21:38;;;;;;;;;;;;;;;10.74;nan;99627.38;4942080;29;19922;-88
2023/04/05 00:24:23;;;;;;;;;;;;;;;10.85;nan;99626.94;4956793;29;20320;-90
2023/04/05 00:27:07;;;;;;;;;;;;;;;10.79;nan;99619.75;4941197;29;19989;-87
2023/04/05 00:29:51;;;;;;;;;;;;;;;10.74;nan;99616.88;4954849;29;20377;-87
2023/04/05 00:32:35;;;;;;;;;;;;;;;10.78;nan;99605.00;4941575;29;20280;-87
2023/04/05 00:35:19;;;;;;;;;;;;;;;10.89;nan;99614.22;4942078;29;20002;-88
2023/04/05 00:38:02;;;;;;;;;;;;;;;10.91;nan;99607.81;4941351;29;19925;-87
2023/04/05 00:40:46;;;;;;;;;;;;;;;11.08;nan;99610.25;4940846;29;19922;-88
2023/04/05 00:43:31;;;;;;;;;;;;;;;11.16;nan;99604.88;4955385;29;19921;-87
2023/04/05 00:46:15;;;;;;;;;;;;;;;11.19;nan;99598.44;4953863;29;19921;-89
2023/04/05 00:48:59;;;;;;;;;;;;;;;11.21;nan;99601.69;4941707;29;19925;-87
2023/04/05 00:51:43;;;;;;;;;;;;;;;11.20;nan;99606.16;4941609;29;19925;-89
2023/04/05 00:54:31;;;;;;;;;;;;;;;11.11;nan;99602.81;4941134;29;19969;-88
2023/04/05 00:57:15;;;;;;;;;;;;;;;11.18;nan;99602.88;4940939;29;20353;-90
2023/04/05 01:00:05;;;;;;;;;;;;;;;11.21;nan;99607.78;4956331;29;19930;-88
2023/04/05 01:02:52;;;;;;;;;;;;;;;11.10;nan;99605.63;4940113;29;19926;-88
2023/04/05 01:05:38;;;;;;;;;;;;;;;11.11;nan;99597.56;4956163;29;20041;-89
2023/04/05 01:08:28;;;;;;;;;;;;;;;11.13;nan;99598.19;4940369;29;20029;-87
2023/04/05 01:11:13;;;;;;;;;;;;;;;11.17;nan;99603.06;4956635;29;19930;-88
2023/04/05 01:13:58;;;;;;;;;;;;;;;11.17;nan;99595.19;4941023;29;19962;-90
2023/04/05 01:16:42;;;;;;;;;;;;;;;11.03;nan;99595.03;4939334;29;19968;-88
2023/04/05 01:19:29;;;;;;;;;;;;;;;11.08;nan;99583.97;4940695;29;19921;-88
2023/04/05 01:22:16;;;;;;;;;;;;;;;11.01;nan;99589.13;4938720;29;19933;-88
2023/04/05 01:25:19;;;;;;;;;;;;;;;11.00;nan;99584.88;4938920;29;19961;-88
2023/04/05 01:28:03;;;;;;;;;;;;;;;11.03;nan;99581.09;4938512;29;19965;-88
2023/04/05 01:30:51;;;;;;;;;;;;;;;10.77;nan;99570.06;4940978;29;19933;-89
2023/04/05 01:33:41;;;;;;;;;;;;;;;10.77;nan;99570.06;4941188;29;20004;-88
2023/04/05 01:36:31;;;;;;;;;;;;;;;10.88;nan;99560.06;4953988;29;19933;-89
2023/04/05 01:39:17;;;;;;;;;;;;;;;10.82;nan;99561.66;4939685;29;19921;-88
2023/04/05 01:42:02;;;;;;;;;;;;;;;10.71;nan;99549.81;4940428;29;20026;-87
2023/04/05 01:44:46;;;;;;;;;;;;;;;10.71;nan;99550.59;4939990;29;20418;-88
2023/04/05 01:47:30;;;;;;;;;;;;;;;10.67;nan;99551.13;4955238;29;19960;-89
2023/04/05 01:50:14;;;;;;;;;;;;;;;10.35;nan;99545.25;4940070;29;19924;-90
2023/04/05 01:52:58;;;;;;;;;;;;;;;10.56;nan;99548.00;4940996;29;19922;-88
2023/04/05 01:55:42;;;;;;;;;;;;;;;10.67;nan;99549.34;4953929;29;19925;-89
2023/04/05 01:58:26;;;;;;;;;;;;;;;10.66;nan;99534.59;4940645;29;20037;-88
2023/04/05 02:01:10;;;;;;;;;;;;;;;10.75;nan;99542.34;4940079;29;19926;-88
2023/04/05 02:03:54;;;;;;;;;;;;;;;10.75;nan;99534.47;4930878;29;20354;-88
2023/04/05 02:06:38;;;;;;;;;;;;;;;10.56;nan;99534.88;4934378;29;19975;-88
2023/04/05 02:09:22;;;;;;;;;;;;;;;10.60;nan;99535.28;4932729;29;19925;-88
2023/04/05 02:12:06;;;;;;;;;;;;;;;10.48;nan;99528.91;4935251;29;19921;-89
2023/04/05 02:14:51;;;;;;;;;;;;;;;10.57;nan;99530.41;4933248;29;19926;-89
2023/04/05 02:17:38;;;;;;;;;;;;;;;10.48;nan;99534.16;4936086;29;19950;-89
2023/04/05 02:20:21;;;;;;;;;;;;;;;10.61;nan;99538.75;4934759;29;20041;-89
2023/04/05 02:23:07;;;;;;;;;;;;;;;10.61;nan;99534.31;4934288;29;19968;-89
2023/04/05 02:25:51;;;;;;;;;;;;;;;10.67;nan;99533.59;4934977;29;20476;-89
2023/04/05 02:28:35;;;;;;;;;;;;;;;10.70;nan;99521.88;4934331;29;20404;-88
2023/04/05 02:31:19;;;;;;;;;;;;;;;10.54;nan;99521.13;4934741;29;19978;-89
2023/04/05 02:34:04;;;;;;;;;;;;;;;10.60;nan;99532.66;4936210;29;20018;-88
2023/04/05 02:36:49;;;;;;;;;;;;;;;10.59;nan;99528.41;4935719;29;19921;-89
2023/04/05 02:39:34;;;;;;;;;;;;;;;10.65;nan;99519.00;4933584;29;20378;-87
2023/04/05 02:42:17;;;;;;;;;;;;;;;10.69;nan;99520.25;4934726;29;19970;-87
2023/04/05 02:45:02;;;;;;;;;;;;;;;10.59;nan;99520.53;4934352;29;19971;-88
2023/04/05 02:47:46;;;;;;;;;;;;;;;10.60;nan;99510.88;4934129;29;20473;-88
2023/04/05 02:50:30;;;;;;;;;;;;;;;10.62;nan;99507.06;4934593;29;19991;-88
2023/04/05 02:53:14;;;;;;;;;;;;;;;10.67;nan;99511.75;4934599;29;19921;-88
2023/04/05 02:55:58;;;;;;;;;;;;;;;10.59;nan;99509.25;4934693;29;20041;-88
2023/04/05 02:58:42;;;;;;;;;;;;;;;10.57;nan;99515.50;4934192;29;19926;-88
2023/04/05 03:01:27;;;;;;;;;;;;;;;10.30;nan;99501.19;4933274;29;19966;-89
2023/04/05 03:04:11;;;;;;;;;;;;;;;10.44;nan;99507.44;4915378;29;19925;-88
2023/04/05 03:06:56;;;;;;;;;;;;;;;10.50;nan;99501.44;4913500;29;19922;-87
2023/04/05 03:09:39;;;;;;;;;;;;;;;10.35;nan;99501.44;4913642;29;19925;-88
2023/04/05 03:12:24;;;;;;;;;;;;;;;10.38;nan;99495.81;4913876;29;20290;-88
2023/04/05 03:15:08;;;;;;;;;;;;;;;10.34;nan;99486.69;4913160;29;19922;-87
2023/04/05 03:17:51;;;;;;;;;;;;;;;10.33;nan;99485.06;4914835;29;20439;-87
2023/04/05 03:20:38;;;;;;;;;;;;;;;10.13;nan;99490.84;4914674;29;19922;-88
2023/04/05 03:23:27;;;;;;;;;;;;;;;10.32;nan;99488.69;4917838;29;20024;-89
2023/04/05 03:26:13;;;;;;;;;;;;;;;10.33;nan;99485.06;4917367;29;19922;-89
2023/04/05 03:28:56;;;;;;;;;;;;;;;10.34;nan;99491.94;4915230;29;20392;-86
2023/04/05 03:31:41;;;;;;;;;;;;;;;10.28;nan;99488.22;4917191;29;19946;-87
2023/04/05 03:34:29;;;;;;;;;;;;;;;10.37;nan;99488.94;4918139;29;20381;-87
2023/04/05 03:37:13;;;;;;;;;;;;;;;10.33;nan;99484.25;4914604;29;20334;-88
2023/04/05 03:39:57;;;;;;;;;;;;;;;10.37;nan;99490.78;4915927;29;20353;-88
2023/04/05 03:42:43;;;;;;;;;;;;;;;10.45;nan;99492.53;4917926;29;20648;-87
2023/04/05 03:45:28;;;;;;;;;;;;;;;10.17;nan;99480.00;4917338;29;20376;-88
2023/04/05 03:48:12;;;;;;;;;;;;;;;10.33;nan;99479.81;4917401;29;20647;-89
2023/04/05 03:50:56;;;;;;;;;;;;;;;10.18;nan;99471.97;4914728;29;19926;-87
2023/04/05 03:53:40;;;;;;;;;;;;;;;10.24;nan;99479.09;4918030;29;19973;-89
2023/04/05 03:56:24;;;;;;;;;;;;;;;10.13;nan;99469.88;4916915;29;19938;-89
2023/04/05 03:59:08;;;;;;;;;;;;;;;10.08;nan;99477.47;4916366;29;20333;-87
2023/04/05 04:01:52;;;;;;;;;;;;;;;10.13;nan;99471.69;4922465;29;19970;-87
2023/04/05 04:04:36;;;;;;;;;;;;;;;10.10;nan;99472.03;4955381;29;19921;-88
2023/04/05 04:07:20;;;;;;;;;;;;;;;10.07;nan;99467.16;4938921;29;19925;-89
2023/04/05 04:10:05;;;;;;;;;;;;;;;9.83;nan;99464.63;4956705;29;20395;-90
2023/04/05 04:12:49;;;;;;;;;;;;;;;9.99;nan;99457.56;4939606;29;19922;-89
2023/04/05 04:15:33;;;;;;;;;;;;;;;9.91;nan;99461.06;4942027;29;19965;-87
2023/04/05 04:18:17;;;;;;;;;;;;;;;9.89;nan;99463.06;4956505;29;19997;-88
2023/04/05 04:21:07;;;;;;;;;;;;;;;9.98;nan;99458.56;4942293;29;20311;-88
2023/04/05 04:23:51;;;;;;;;;;;;;;;9.92;nan;99457.47;4941544;29;20444;-89
2023/04/05 04:26:36;;;;;;;;;;;;;;;9.91;nan;99447.16;4953077;29;19921;-88
2023/04/05 04:29:32;;;;;;;;;;;;;;;9.93;nan;99442.56;4939821;29;19930;-87
2023/04/05 04:32:16;;;;;;;;;;;;;;;10.05;nan;99441.13;4939536;29;20285;-88
2023/04/05 04:35:04;;;;;;;;;;;;;;;10.12;nan;99436.75;4956092;29;19997;-88
2023/04/05 04:37:51;;;;;;;;;;;;;;;10.00;nan;99448.69;4941757;29;20017;-87
2023/04/05 04:40:40;;;;;;;;;;;;;;;10.07;nan;99441.75;4955935;29;19925;-88
2023/04/05 04:43:27;;;;;;;;;;;;;;;10.06;nan;99432.25;4954512;29;19921;-88
2023/04/05 04:46:13;;;;;;;;;;;;;;;10.11;nan;99436.94;4940731;29;20089;-89
2023/04/05 04:48:58;;;;;;;;;;;;;;;9.87;nan;99433.59;4941606;29;19933;-88
2023/04/05 04:51:42;;;;;;;;;;;;;;;10.02;nan;99436.22;4953686;29;19929;-87
2023/04/05 04:54:28;;;;;;;;;;;;;;;10.02;nan;99425.72;4941614;29;19932;-88
2023/04/05 04:57:12;;;;;;;;;;;;;;;9.90;nan;99414.06;4940292;29;20024;-87
2023/04/05 04:59:56;;;;;;;;;;;;;;;9.82;nan;99415.78;4941643;29;19921;-88
2023/04/05 05:02:41;;;;;;;;;;;;;;;9.92;nan;99414.69;4939075;29;20403;-90
2023/04/05 05:05:26;;;;;;;;;;;;;;;9.91;nan;99423.56;4953564;29;20420;-87
2023/04/05 05:08:10;;;;;;;;;;;;;;;9.76;nan;99413.06;4941818;29;19921;-87
2023/04/05 05:10:54;;;;;;;;;;;;;;;9.80;nan;99409.91;4939079;29;19925;-88
2023/04/05 05:13:38;;;;;;;;;;;;;;;9.69;nan;99405.13;4956009;29;20373;-88
2023/04/05 05:16:22;;;;;;;;;;;;;;;9.78;nan;99403.22;4940645;29;20395;-88
2023/04/05 05:19:07;;;;;;;;;;;;;;;9.92;nan;99412.09;4940463;29;19921;-87
2023/04/05 05:21:52;;;;;;;;;;;;;;;9.77;nan;99402.41;4940028;29;20008;-88
2023/04/05 05:24:36;;;;;;;;;;;;;;;9.95;nan;99398.59;4937784;29;20313;-88
2023/04/05 05:27:21;;;;;;;;;;;;;;;9.65;nan;99394.16;4939797;29;19930;-88
2023/04/05 05:30:06;;;;;;;;;;;;;;;9.65;nan;99388.13;4941134;29;19980;-87
2023/04/05 05:32:53;;;;;;;;;;;;;;;9.78;nan;99385.66;4938968;29;19964;-90
2023/04/05 05:35:37;;;;;;;;;;;;;;;9.71;nan;99388.19;4938858;29;19985;-88
2023/04/05 05:38:21;;;;;;;;;;;;;;;9.80;nan;99390.75;4956896;29;20430;-88
2023/04/05 05:41:05;;;;;;;;;;;;;;;9.96;nan;99389.75;4958083;29;19966;-88
2023/04/05 05:43:49;;;;;;;;;;;;;;;9.76;nan;99390.28;4942887;29;20320;-89
2023/04/05 05:46:33;;;;;;;;;;;;;;;9.97;nan;99397.44;4943304;29;19928;-88
2023/04/05 05:49:17;;;;;;;;;;;;;;;9.92;nan;99397.16;4943213;29;19969;-89
2023/04/05 05:52:02;;;;;;;;;;;;;;;9.86;nan;99401.31;4943927;29;19920;-88
2023/04/05 05:54:46;;;;;;;;;;;;;;;10.07;nan;99397.16;4944071;29;19920;-89
2023/04/05 05:57:30;;;;;;;;;;;;;;;9.97;nan;99396.59;4942417;29;19970;-89
2023/04/05 06:00:14;;;;;;;;;;;;;;;9.94;nan;99394.34;4942479;29;20399;-89
2023/04/05 06:03:00;;;;;;;;;;;;;;;9.94;nan;99391.72;4938081;29;20055;-89
2023/04/05 06:05:51;;;;;;;;;;;;;;;9.73;nan;99385.41;4943081;29;19972;-89
2023/04/05 06:08:35;;;;;;;;;;;;;;;9.96;nan;99389.75;4943088;29;19961;-89
2023/04/05 06:11:23;;;;;;;;;;;;;;;10.12;nan;99393.97;4958023;29;19956;-89
2023/04/05 06:14:08;;;;;;;;;;;;;;;10.09;nan;99396.97;4943795;29;19985;-88
2023/04/05 06:16:51;;;;;;;;;;;;;;;10.30;nan;99390.97;4943790;29;19994;-88
2023/04/05 06:19:35;;;;;;;;;;;;;;;10.38;nan;99388.22;4949855;29;19929;-88
2023/04/05 06:22:21;;;;;;;;;;;;;;;10.57;nan;99392.13;4943094;29;20476;-88
2023/04/05 06:25:06;;;;;;;;;;;;;;;10.62;nan;99386.31;4942610;29;20020;-89
2023/04/05 06:27:50;;;;;;;;;;;;;;;10.76;nan;99389.06;4954081;29;20387;-90
2023/04/05 06:30:34;;;;;;;;;;;;;;;10.59;nan;99388.50;4939840;29;19925;-89
2023/04/05 06:33:18;;;;;;;;;;;;;;;10.53;nan;99390.03;4946195;29;19921;-87
2023/04/05 06:36:02;;;;;;;;;;;;;;;10.63;nan;99392.38;4953213;29;20010;-88
2023/04/05 06:38:46;;;;;;;;;;;;;;;10.69;nan;99389.81;4941221;29;20416;-89
2023/04/05 06:41:30;;;;;;;;;;;;;;;10.89;nan;99393.63;4939261;29;19921;-88
2023/04/05 06:44:14;;;;;;;;;;;;;;;10.91;nan;99381.16;4955967;29;19920;-88
2023/04/05 06:46:58;;;;;;;;;;;;;;;11.00;nan;99391.34;4937090;29;20388;-89
2023/04/05 06:49:42;;;;;;;;;;;;;;;10.98;nan;99392.50;4940253;29;20023;-88
2023/04/05 06:52:26;;;;;;;;;;;;;;;11.00;nan;99386.09;4929037;29;19929;-87
2023/04/05 06:55:10;;;;;;;;;;;;;;;11.09;nan;99383.31;4953497;28;19973;-87
2023/04/05 06:57:55;;;;;;;;;;;;;;;11.14;nan;99378.28;4950205;29;19921;-88
2023/04/05 07:00:38;;;;;;;;;;;;;;;11.06;nan;99381.88;4943021;29;19938;-88
2023/04/05 07:03:25;;;;;;;;;;;;;;;10.99;nan;99384.44;4943330;29;19974;-89
2023/04/05 07:06:09;;;;;;;;;;;;;;;11.12;nan;99381.13;4949640;29;19928;-88
2023/04/05 07:08:53;;;;;;;;;;;;;;;11.09;nan;99378.06;4938521;29;19929;-87
2023/04/05 07:11:38;;;;;;;;;;;;;;;10.93;nan;99385.19;4948551;29;20127;-88
2023/04/05 07:14:22;;;;;;;;;;;;;;;11.12;nan;99390.81;4951229;29;19921;-88
2023/04/05 07:17:06;;;;;;;;;;;;;;;11.10;nan;99387.56;4952338;29;19977;-88
2023/04/05 07:19:50;;;;;;;;;;;;;;;11.08;nan;99394.81;4938343;29;19937;-87
2023/04/05 07:22:34;;;;;;;;;;;;;;;10.97;nan;99386.44;4938082;29;19946;-88
2023/04/05 07:25:18;;;;;;;;;;;;;;;10.97;nan;99390.88;4935686;29;21578;-88
2023/04/05 07:28:02;;;;;;;;;;;;;;;10.86;nan;99389.56;4938452;29;19921;-87
2023/04/05 07:30:46;;;;;;;;;;;;;;;10.88;nan;99387.56;4952581;29;19925;-87
2023/04/05 07:33:30;;;;;;;;;;;;;;;10.66;nan;99371.81;4934020;29;19924;-91
2023/04/05 07:36:14;;;;;;;;;;;;;;;10.80;nan;99382.44;4938455;29;19921;-88
2023/04/05 07:38:59;;;;;;;;;;;;;;;10.83;nan;99382.09;4943064;29;19997;-90
2023/04/05 07:41:43;;;;;;;;;;;;;;;10.88;nan;99376.25;4956831;29;19965;-89
2023/04/05 07:44:27;;;;;;;;;;;;;;;10.91;nan;99381.94;4939484;29;19921;-90
2023/04/05 07:47:11;;;;;;;;;;;;;;;10.84;nan;99386.34;4956215;29;19938;-89
2023/04/05 07:49:55;;;;;;;;;;;;;;;11.02;nan;99390.34;4940724;29;19925;-90
2023/04/05 07:52:43;;;;;;;;;;;;;;;10.97;nan;99383.81;4940735;29;20321;-88
2023/04/05 07:55:27;;;;;;;;;;;;;;;10.97;nan;99385.63;4939541;29;19929;-88
2023/04/05 07:58:11;;;;;;;;;;;;;;;11.04;nan;99381.25;4948817;29;19925;-89
2023/04/05 08:00:58;;;;;;;;;;;;;;;10.99;nan;99378.38;4949786;29;19929;-89
2023/04/05 08:03:42;;;;;;;;;;;;;;;11.09;nan;99388.56;4934245;29;19999;-89
2023/04/05 08:06:27;;;;;;;;;;;;;;;11.14;nan;99396.69;4941762;29;19962;-90
2023/04/05 08:09:11;;;;;;;;;;;;;;;11.09;nan;99391.19;4943334;29;19929;-90
2023/04/05 08:11:56;;;;;;;;;;;;;;;11.21;nan;99394.94;4957637;29;19929;-88
2023/04/05 08:14:40;;;;;;;;;;;;;;;11.02;nan;99385.06;4936631;29;20029;-87
2023/04/05 08:17:25;;;;;;;;;;;;;;;11.22;nan;99382.59;4945010;29;19922;-87
2023/04/05 08:20:10;;;;;;;;;;;;;;;11.26;nan;99384.66;4936667;29;19993;-87
2023/04/05 08:22:53;;;;;;;;;;;;;;;11.36;nan;99383.50;4939978;29;19972;-89
2023/04/05 08:25:38;;;;;;;;;;;;;;;11.61;nan;99380.47;4940461;29;20018;-87
2023/04/05 08:28:22;;;;;;;;;;;;;;;11.55;nan;99384.66;4957089;29;19922;-87
2023/04/05 08:31:06;;;;;;;;;;;;;;;11.82;nan;99371.66;4953741;29;20288;-87
2023/04/05 08:33:50;;;;;;;;;;;;;;;11.97;nan;99379.44;4940746;29;20336;-89
2023/04/05 08:36:34;;;;;;;;;;;;;;;12.04;nan;99374.22;4957412;29;21701;-88
2023/04/05 08:39:18;;;;;;;;;;;;;;;11.83;nan;99373.28;4941565;29;20082;-87
2023/04/05 08:42:02;;;;;;;;;;;;;;;12.02;nan;99377.06;4937682;29;19929;-87
2023/04/05 08:44:50;;;;;;;;;;;;;;;12.08;nan;99370.19;4942776;29;19942;-87
2023/04/05 08:47:35;;;;;;;;;;;;;;;12.07;nan;99369.41;4951826;29;19966;-87
2023/04/05 08:50:20;;;;;;;;;;;;;;;12.05;nan;99366.16;4941707;29;20404;-87
2023/04/05 08:53:06;;;;;;;;;;;;;;;11.98;nan;99367.91;4940102;29;19921;-90
2023/04/05 08:55:52;;;;;;;;;;;;;;;11.74;nan;99364.75;4937720;29;19930;-90
2023/04/05 08:58:37;;;;;;;;;;;;;;;11.97;nan;99363.63;4943734;29;20435;-91
2023/04/05 09:01:22;;;;;;;;;;;;;;;11.71;nan;99359.88;4951473;29;19921;-88
2023/04/05 09:04:06;;;;;;;;;;;;;;;11.71;nan;99367.75;4938955;29;19973;-89
2023/04/05 09:06:56;;;;;;;;;;;;;;;11.80;nan;99358.72;4940818;29;19981;-89
2023/04/05 09:09:45;;;;;;;;;;;;;;;11.79;nan;99367.63;4941103;29;19970;-91
2023/04/05 09:12:29;;;;;;;;;;;;;;;11.76;nan;99352.22;4944212;29;19969;-91
2023/04/05 09:15:13;;;;;;;;;;;;;;;11.64;nan;99359.03;4941860;29;20017;-89
2023/04/05 09:17:57;;;;;;;;;;;;;;;11.64;nan;99353.78;4939799;29;19929;-89
2023/04/05 09:20:43;;;;;;;;;;;;;;;11.76;nan;99352.22;4927430;29;19922;-89
2023/04/05 09:23:27;;;;;;;;;;;;;;;11.88;nan;99354.31;4945331;29;19921;-91
2023/04/05 09:26:22;;;;;;;;;;;;;;;11.80;nan;99348.22;4948613;29;19921;-91
2023/04/05 09:29:06;;;;;;;;;;;;;;;11.74;nan;99342.91;4941622;29;19942;-88
2023/04/05 09:31:50;;;;;;;;;;;;;;;11.75;nan;99349.78;4943579;29;20001;-89
2023/04/05 09:34:37;;;;;;;;;;;;;;;11.78;nan;99344.94;4945280;29;19945;-90
2023/04/05 09:37:21;;;;;;;;;;;;;;;11.72;nan;99343.09;4944473;29;19980;-91
2023/04/05 09:40:08;;;;;;;;;;;;;;;11.91;nan;99336.31;4955693;29;20435;-90
2023/04/05 09:42:52;;;;;;;;;;;;;;;11.71;nan;99338.84;4943282;29;19922;-90
2023/04/05 09:45:41;;;;;;;;;;;;;;;11.75;nan;99339.28;4942848;29;20276;-89
2023/04/05 09:48:43;;;;;;;;;;;;;;;11.78;nan;99331.78;4939953;29;19921;-90
2023/04/05 09:51:32;;;;;;;;;;;;;;;11.82;nan;99337.47;4956286;29;20031;-90
2023/04/05 09:54:16;;;;;;;;;;;;;;;11.94;nan;99335.09;4955412;29;21417;-90
2023/04/05 09:57:02;;;;;;;;;;;;;;;12.04;nan;99337.41;4956662;29;20301;-90
2023/04/05 09:59:46;;;;;;;;;;;;;;;12.04;nan;99338.22;4938383;29;19938;-90
2023/04/05 10:02:37;;;;;;;;;;;;;;;11.97;nan;99345.22;4940082;29;20443;-89
2023/04/05 10:05:28;;;;;;;;;;;;;;;11.98;nan;99349.47;4938055;29;19925;-90
2023/04/05 10:08:13;;;;;;;;;;;;;;;11.91;nan;99351.28;4944123;29;19921;-89
2023/04/05 10:10:57;;;;;;;;;;;;;;;11.71;nan;99350.19;4943503;29;20399;-90
2023/04/05 10:13:44;;;;;;;;;;;;;;;11.66;nan;99357.81;4942253;29;19922;-89
2023/04/05 10:16:29;;;;;;;;;;;;;;;11.73;nan;99351.81;4940246;29;19921;-89
2023/04/05 10:19:26;;;;;;;;;;;;;;;11.65;nan;99345.69;4936852;29;19921;-90
2023/04/05 10:22:14;;;;;;;;;;;;;;;11.59;nan;99351.72;4939685;29;19921;-89
2023/04/05 10:25:04;;;;;;;;;;;;;;;11.62;nan;99345.28;4941415;29;20381;-90
2023/04/05 10:27:53;;;;;;;;;;;;;;;11.54;nan;99344.41;4941448;29;20025;-91
2023/04/05 10:30:52;;;;;;;;;;;;;;;11.61;nan;99344.44;4940900;29;19925;-90
2023/04/05 10:33:36;;;;;;;;;;;;;;;11.72;nan;99340.47;4955736;29;20257;-90
2023/04/05 10:36:26;;;;;;;;;;;;;;;11.50;nan;99337.13;4941302;29;19920;-90
2023/04/05 10:39:23;;;;;;;;;;;;;;;11.68;nan;99333.97;4938998;29;19926;-91
2023/04/05 10:42:17;;;;;;;;;;;;;;;11.55;nan;99335.50;4940029;29;19921;-90
2023/04/05 10:45:03;;;;;;;;;;;;;;;11.76;nan;99331.16;4939192;29;19941;-90
2023/04/05 10:47:56;;;;;;;;;;;;;;;11.72;nan;99335.19;4941586;29;19966;-90
2023/04/05 10:50:41;;;;;;;;;;;;;;;11.71;nan;99330.94;4941493;29;19963;-89
2023/04/05 10:53:26;;;;;;;;;;;;;;;11.66;nan;99333.34;4941599;29;19921;-91
2023/04/05 10:56:10;;;;;;;;;;;;;;;11.42;nan;99330.19;4938441;29;19922;-89
2023/04/05 10:58:58;;;;;;;;;;;;;;;11.68;nan;99326.88;4937950;29;19961;-90
2023/04/05 11:01:44;;;;;;;;;;;;;;;11.66;nan;99330.72;4940409;29;19972;-89
2023/04/05 11:04:28;;;;;;;;;;;;;;;11.91;nan;99322.34;4938256;29;19924;-89
2023/04/05 11:07:14;;;;;;;;;;;;;;;11.70;nan;99317.00;4940833;29;20431;-89
2023/04/05 11:10:01;;;;;;;;;;;;;;;11.83;nan;99321.50;4940653;29;19925;-90
2023/04/05 11:12:45;;;;;;;;;;;;;;;11.87;nan;99314.03;4939585;29;19936;-90
2023/04/05 11:15:33;;;;;;;;;;;;;;;11.79;nan;99314.19;4937408;29;19993;-89
2023/04/05 11:18:23;;;;;;;;;;;;;;;11.88;nan;99310.38;4933854;29;19985;-89
2023/04/05 11:21:07;;;;;;;;;;;;;;;11.85;nan;99319.50;4953463;29;19965;-90
2023/04/05 11:24:05;;;;;;;;;;;;;;;11.97;nan;99317.13;4954659;29;19921;-90
2023/04/05 11:26:57;;;;;;;;;;;;;;;12.10;nan;99310.31;4938934;29;20333;-89
2023/04/05 11:29:46;;;;;;;;;;;;;;;12.10;nan;99302.41;4939367;29;19925;-90
2023/04/05 11:32:40;;;;;;;;;;;;;;;12.19;nan;99301.22;4940085;29;19934;-89
2023/04/05 11:35:27;;;;;;;;;;;;;;;12.42;nan;99298.25;4939671;29;19953;-91
2023/04/05 11:38:22;;;;;;;;;;;;;;;12.43;nan;99301.66;4940241;29;20412;-89
2023/04/05 11:41:12;;;;;;;;;;;;;;;12.27;nan;99301.03;4948998;29;19958;-90
2023/04/05 11:43:58;;;;;;;;;;;;;;;12.45;nan;99294.38;4944126;29;19925;-90
2023/04/05 11:46:49;;;;;;;;;;;;;;;12.59;nan;99291.78;4941822;29;20390;-90
2023/04/05 11:49:34;;;;;;;;;;;;;;;12.40;nan;99291.53;4957174;29;20025;-88
2023/04/05 11:52:23;;;;;;;;;;;;;;;12.39;nan;99293.38;4944592;29;19920;-90
2023/04/05 11:55:10;;;;;;;;;;;;;;;12.54;nan;99289.72;4944422;29;19921;-88
2023/04/05 11:57:57;;;;;;;;;;;;;;;12.66;nan;99282.88;4944566;29;20385;-89
2023/04/05 12:00:45;;;;;;;;;;;;;;;12.78;nan;99282.28;4944316;29;19929;-89
2023/04/05 12:03:29;;;;;;;;;;;;;;;12.95;nan;99287.94;4944300;29;19924;-90
2023/04/05 12:06:13;;;;;;;;;;;;;;;12.86;nan;99287.31;4949504;29;19921;-90
2023/04/05 12:08:57;;;;;;;;;;;;;;;12.71;nan;99280.44;4944277;29;19921;-89
2023/04/05 12:11:41;;;;;;;;;;;;;;;12.76;nan;99284.28;4944016;29;19965;-89
2023/04/05 12:14:27;;;;;;;;;;;;;;;12.95;nan;99267.66;4943090;29;20320;-91
2023/04/05 12:17:12;;;;;;;;;;;;;;;12.94;nan;99271.28;4944235;29;19920;-91
2023/04/05 12:19:55;;;;;;;;;;;;;;;12.61;nan;99271.31;4944389;29;19961;-90
2023/04/05 12:22:41;;;;;;;;;;;;;;;12.51;nan;99271.72;4959346;29;19963;-89
2023/04/05 12:40:11;;;;;;;;;;;;;;;12.68;nan;99267.66;4955612;29;20391;-91
2023/04/05 12:43:08;;;;;;;;;;;;;;;12.54;nan;99264.22;4956178;29;20417;-90
2023/04/05 12:46:13;;;;;;;;;;;;;;;12.37;nan;99263.78;4943918;29;20379;-88
2023/04/05 12:49:19;;;;;;;;;;;;;;;12.36;nan;99262.16;4941169;29;19922;-88
2023/04/05 12:52:04;;;;;;;;;;;;;;;12.18;nan;99260.13;4940689;28;19941;-87
2023/04/05 12:54:54;;;;;;;;;;;;;;;12.08;nan;99254.41;4940747;29;19937;-88
2023/04/05 12:57:47;;;;;;;;;;;;;;;12.16;nan;99256.06;4942959;29;20628;-88
2023/04/05 13:00:37;;;;;;;;;;;;;;;12.12;nan;99250.41;4940555;29;19980;-88
2023/04/05 13:18:08;;;;;;;;;;;;;;;12.33;nan;99244.16;4957685;29;19920;-87
2023/04/05 13:24:27;;;;;;;;;;;;;;;12.36;nan;99235.06;4950051;29;19972;-89
2023/04/05 13:27:21;;;;;;;;;;;;;;;12.17;nan;99226.94;4945813;29;19925;-87
2023/04/05 13:30:06;;;;;;;;;;;;;;;12.31;nan;99230.38;4954785;29;19929;-88
2023/04/05 13:32:50;;;;;;;;;;;;;;;12.44;nan;99229.56;4942965;29;19937;-88
2023/04/05 13:35:34;;;;;;;;;;;;;;;12.35;nan;99225.53;4940450;29;19921;-87
2023/04/05 13:38:18;;;;;;;;;;;;;;;12.22;nan;99226.34;4942957;29;19974;-88
2023/04/05 13:41:02;;;;;;;;;;;;;;;12.29;nan;99221.88;4941214;29;19921;-88
2023/04/05 13:43:46;;;;;;;;;;;;;;;12.30;nan;99223.50;4942608;29;19969;-89
2023/04/05 13:46:30;;;;;;;;;;;;;;;12.39;nan;99218.84;4942954;29;19925;-88
2023/04/05 13:49:14;;;;;;;;;;;;;;;12.32;nan;99224.09;4942441;29;20387;-88
2023/04/05 13:51:59;;;;;;;;;;;;;;;12.33;nan;99225.72;4942229;29;19958;-86
2023/04/05 13:54:42;;;;;;;;;;;;;;;12.29;nan;99219.25;4942211;29;19920;-87
2023/04/05 13:57:29;;;;;;;;;;;;;;;12.53;nan;99214.38;4957288;29;19921;-88
2023/04/05 14:00:13;;;;;;;;;;;;;;;12.54;nan;99210.75;4957013;29;20269;-87
2023/04/05 14:02:57;;;;;;;;;;;;;;;12.75;nan;99208.91;4941673;29;19969;-89
2023/04/05 14:05:41;;;;;;;;;;;;;;;12.64;nan;99200.63;4952244;28;19925;-87
2023/04/05 14:08:25;;;;;;;;;;;;;;;12.68;nan;99198.41;4935462;29;19925;-87
2023/04/05 14:11:11;;;;;;;;;;;;;;;12.57;nan;99189.28;4940461;29;19936;-88
2023/04/05 14:13:55;;;;;;;;;;;;;;;12.49;nan;99192.13;4944340;29;19973;-87
2023/04/05 14:16:42;;;;;;;;;;;;;;;12.54;nan;99184.41;4941086;29;19984;-87
2023/04/05 14:19:26;;;;;;;;;;;;;;;12.63;nan;99188.47;4940797;29;19930;-88
2023/04/05 14:22:10;;;;;;;;;;;;;;;12.53;nan;99177.53;4940894;29;20463;-87
2023/04/05 14:24:54;;;;;;;;;;;;;;;12.32;nan;99178.56;4940867;29;20000;-89
2023/04/05 14:27:41;;;;;;;;;;;;;;;12.36;nan;99172.66;4939281;29;19921;-88
2023/04/05 14:30:24;;;;;;;;;;;;;;;12.26;nan;99174.91;4939322;29;20404;-87
2023/04/05 14:33:08;;;;;;;;;;;;;;;12.33;nan;99173.09;4940391;29;20395;-89
2023/04/05 14:35:53;;;;;;;;;;;;;;;12.30;nan;99170.06;4938592;29;20049;-89
2023/04/05 14:38:37;;;;;;;;;;;;;;;12.18;nan;99165.41;4940101;29;19921;-88
2023/04/05 14:41:21;;;;;;;;;;;;;;;12.24;nan;99154.03;4939760;29;19973;-87
2023/04/05 14:44:05;;;;;;;;;;;;;;;12.32;nan;99149.63;4939228;29;19925;-87
2023/04/05 14:46:50;;;;;;;;;;;;;;;12.35;nan;99150.00;4940185;29;19965;-87
2023/04/05 14:49:34;;;;;;;;;;;;;;;12.42;nan;99139.47;4940423;29;19932;-88
2023/04/05 14:52:19;;;;;;;;;;;;;;;12.47;nan;99136.22;4940504;29;19929;-87
2023/04/05 14:55:03;;;;;;;;;;;;;;;12.24;nan;99132.19;4939871;29;20281;-87
2023/04/05 14:57:47;;;;;;;;;;;;;;;12.37;nan;99132.16;4954393;29;20257;-88
2023/04/05 15:00:32;;;;;;;;;;;;;;;12.43;nan;99127.91;4940280;29;19921;-88
2023/04/05 15:03:18;;;;;;;;;;;;;;;12.48;nan;99127.31;4952460;29;19925;-88
2023/04/05 15:06:02;;;;;;;;;;;;;;;12.37;nan;99116.38;4940429;29;20001;-88
2023/04/05 15:08:50;;;;;;;;;;;;;;;12.29;nan;99111.34;4938575;29;19920;-88
2023/04/05 15:11:38;;;;;;;;;;;;;;;12.46;nan;99113.56;4956506;29;20089;-88
2023/04/05 15:14:22;;;;;;;;;;;;;;;12.41;nan;99109.72;4955420;29;20126;-88
2023/04/05 15:17:06;;;;;;;;;;;;;;;12.47;nan;99107.28;4947305;29;19930;-87
2023/04/05 15:19:50;;;;;;;;;;;;;;;12.50;nan;99104.22;4940960;29;19921;-85